Azalea, OR

6:19 PM PST on December 24, 2014 (GMT -0800)
wolf creek | Change Station
CLOSE
Current Station
Personal Weather Station
Location: Wolf Creek, OR
Elevation: 1503 ft
Nearby Weather Stations
Active Advisory: Flood Warning Active Notice: Record Report

Elev 1503 ft 42.71 °N, 123.37 °W | Updated 2 seconds ago

Overcast
Overcast
39.0 °F
Feels Like 39 °F
N
0.0
Wind Variable Wind from SSE
Gusts 0.0 mph

Today
High -- | Low -- °F
--% Chance of Precip.
Yesterday
High -- | Low -- °F
Precip. -- in
7:41 AM 4:43 PM
Waxing Crescent, 12% visible
Pressure 30.11 in
Visibility -9999.0 miles
Clouds Scattered Clouds 2700 ft
Overcast 3400 ft
Windchill 39 °F
Dew Point 36 °F
Humidity 90%
Rainfall 0.77 in
Snow Depth Not available.
UV 0 out of 12
Pollen .60 out of 12
Air Quality Not available.
Flu Activity Not available.
SPECI KRBG 250203Z AUTO 13003KT -RA SCT027 OVC034 06/04 A3011 RMK AO2 P0000 T00610044

More Conditions Fewer Conditions

Pressure 30.11 in
Visibility -9999.0 miles
Clouds Scattered Clouds 2700 ft
Overcast 3400 ft
Windchill 39 °F
Dew Point 36 °F
Humidity 90%
Rainfall 0.77 in
Snow Depth Not available.
UV 0 out of 12
Pollen .60 out of 12
Air Quality Not available.
Flu Activity Not available.
SPECI KRBG 250203Z AUTO 13003KT -RA SCT027 OVC034 06/04 A3011 RMK AO2 P0000 T00610044

More Conditions Fewer Conditions

10-Day Weather Forecast

Almanac

Astronomy

Dec. 24, 2014 Rise Set
Actual Time
Civil Twilight
Nautical Twilight
Astronomical Twilight
Moon
Length of Visible Light
Length of Day
Tomorrow will be .
, % of the Moon is Illuminated

Today's Extremes

State Highs State Lows

Community

WunderPhotos

Upload Photos

1,780,210 photos uploaded!

WunderBlogs® & News

Nearby

Air Quality

  Air Quality AQ Index Pollutant
Not available.

Snow Depth

Station Depth Elevation

Earthquake Activity

City Distance Mag. Time & Date
Minimum magnitude displayed is 2.5.

Coastal Water Temperatures

Place Temperature

Nearby Weather Stations